createdAt,value
2018-07-26T00:01:11.312Z,98000.44
2018-07-26T00:03:43.474Z,98001.63
2018-07-26T00:06:15.036Z,98016.93
2018-07-26T00:08:47.869Z,98017.25
2018-07-26T00:11:20.095Z,98025.43
2018-07-26T00:13:51.864Z,98013.95
2018-07-26T00:16:23.679Z,98012.88
2018-07-26T00:18:55.494Z,98010.53
2018-07-26T00:21:27.499Z,98008.69
2018-07-26T00:23:59.566Z,97994.41
2018-07-26T00:26:31.454Z,97985.91
2018-07-26T00:29:03.332Z,97985.08
2018-07-26T00:31:35.940Z,97983.32
2018-07-26T00:34:07.915Z,97976.84
2018-07-26T00:36:39.458Z,97977.16
2018-07-26T00:39:12.762Z,97975.83
2018-07-26T00:41:44.834Z,97974.00
2018-07-26T00:44:16.451Z,97976.92
2018-07-26T00:46:49.046Z,97975.59
2018-07-26T00:49:20.776Z,97975.52
2018-07-26T00:51:52.615Z,97972.27
2018-07-26T00:54:24.493Z,97970.88
2018-07-26T00:56:56.693Z,97976.84
2018-07-26T00:59:28.824Z,97983.50
2018-07-26T01:02:00.488Z,97988.01
2018-07-26T01:04:32.354Z,97989.34
2018-07-26T01:07:04.186Z,97986.61
2018-07-26T01:09:37.195Z,97990.94
2018-07-26T01:12:09.442Z,97992.63
2018-07-26T01:14:41.272Z,97986.70
2018-07-26T01:17:13.068Z,97988.13
2018-07-26T01:19:44.895Z,97990.61
2018-07-26T01:22:17.143Z,97994.93
2018-07-26T01:24:49.048Z,97999.25
2018-07-26T01:27:21.023Z,98001.95
2018-07-26T01:29:52.959Z,98004.52
2018-07-26T01:32:24.941Z,98014.66
2018-07-26T01:34:56.800Z,98018.66
2018-07-26T01:37:28.370Z,98022.70
2018-07-26T01:40:00.060Z,98026.33
2018-07-26T01:42:37.088Z,98033.31
2018-07-26T01:45:09.059Z,98036.66
2018-07-26T01:47:40.870Z,98039.19
2018-07-26T01:50:12.732Z,98046.81
2018-07-26T01:52:44.720Z,98054.16
2018-07-26T01:55:16.636Z,98060.96
2018-07-26T01:57:48.294Z,98059.99
2018-07-26T02:00:20.044Z,98065.33
2018-07-26T02:02:51.812Z,98072.48
2018-07-26T02:05:23.637Z,98070.65
2018-07-26T02:07:55.580Z,98071.84
2018-07-26T02:10:27.902Z,98077.42
2018-07-26T02:12:59.731Z,98085.73
2018-07-26T02:15:31.591Z,98086.38
2018-07-26T02:18:03.476Z,98082.70
2018-07-26T02:20:35.321Z,98085.08
2018-07-26T02:23:06.953Z,98083.97
2018-07-26T02:25:39.019Z,98085.73
2018-07-26T02:28:11.138Z,98095.23
2018-07-26T02:30:42.847Z,98089.80
2018-07-26T02:33:14.539Z,98095.13
2018-07-26T02:35:46.586Z,98093.79
2018-07-26T02:38:18.318Z,98098.47
2018-07-26T02:40:50.233Z,98097.64
2018-07-26T02:43:22.136Z,98099.80
2018-07-26T02:45:53.971Z,98103.47
2018-07-26T02:48:26.000Z,98105.63
2018-07-26T02:50:58.000Z,98116.97
2018-07-26T02:53:29.837Z,98118.80
2018-07-26T02:56:01.855Z,98116.14
2018-07-26T02:58:33.638Z,98123.95
2018-07-26T03:01:05.325Z,98121.35
2018-07-26T03:03:37.907Z,98122.18
2018-07-26T03:06:09.594Z,98129.52
2018-07-26T03:08:41.633Z,98129.84
2018-07-26T03:11:13.594Z,98129.84
2018-07-26T03:13:45.637Z,98127.54
2018-07-26T03:16:17.279Z,98120.38
2018-07-26T03:18:49.403Z,98126.53
2018-07-26T03:21:21.004Z,98121.53
2018-07-26T03:23:52.911Z,98122.86
2018-07-26T03:27:28.465Z,98133.72
2018-07-26T03:30:00.471Z,98130.70
2018-07-26T03:32:32.368Z,98137.22
2018-07-26T03:35:04.775Z,98135.56
2018-07-26T03:37:36.620Z,98136.92
2018-07-26T03:40:08.461Z,98134.25
2018-07-26T03:42:40.380Z,98134.97
2018-07-26T03:45:12.210Z,98138.34
2018-07-26T03:47:43.644Z,98140.06
2018-07-26T03:50:15.647Z,98128.41
2018-07-26T03:52:47.336Z,98131.16
2018-07-26T03:55:19.382Z,98127.16
2018-07-26T03:57:51.237Z,98122.91
2018-07-26T04:00:22.916Z,98122.10
2018-07-26T04:02:54.736Z,98117.58
2018-07-26T04:05:26.693Z,98113.26
2018-07-26T04:07:58.271Z,98117.58
2018-07-26T04:10:30.136Z,98114.03
2018-07-26T04:13:02.358Z,98108.05
2018-07-26T04:15:34.067Z,98108.94
2018-07-26T04:18:07.568Z,98107.22
2018-07-26T04:20:39.587Z,98109.80
2018-07-26T04:23:11.490Z,98113.28
2018-07-26T04:25:43.343Z,98113.67
2018-07-26T04:28:15.239Z,98117.52
2018-07-26T04:30:47.492Z,98121.73
2018-07-26T04:33:19.005Z,98116.44
2018-07-26T04:35:51.248Z,98123.72
2018-07-26T04:38:22.996Z,98128.33
2018-07-26T04:40:54.885Z,98132.00
2018-07-26T04:43:26.802Z,98131.38
2018-07-26T04:45:58.983Z,98131.38
2018-07-26T04:48:30.855Z,98146.34
2018-07-26T04:51:02.754Z,98137.70
2018-07-26T04:53:34.560Z,98142.64
2018-07-26T04:56:06.792Z,98141.70
2018-07-26T04:58:38.269Z,98150.28
2018-07-26T05:01:10.194Z,98158.61
2018-07-26T05:03:42.023Z,98154.62
2018-07-26T05:06:13.881Z,98163.43
2018-07-26T05:08:45.841Z,98166.97
2018-07-26T05:11:17.970Z,98162.48
2018-07-26T05:13:50.203Z,98158.84
2018-07-26T05:16:22.013Z,98147.34
2018-07-26T05:18:53.913Z,98149.50
2018-07-26T05:21:25.952Z,98149.02
2018-07-26T05:23:58.460Z,98147.42
2018-07-26T05:26:30.601Z,98148.19
2018-07-26T05:29:02.867Z,98146.03
2018-07-26T05:31:34.730Z,98142.70
2018-07-26T05:34:06.799Z,98141.72
2018-07-26T05:36:38.917Z,98145.70
2018-07-26T05:39:12.952Z,98141.72
2018-07-26T05:41:44.927Z,98142.05
2018-07-26T05:44:16.817Z,98145.53
2018-07-26T05:46:48.933Z,98142.05
2018-07-26T05:49:20.952Z,98140.72
2018-07-26T05:51:52.908Z,98148.70
2018-07-26T05:54:24.949Z,98142.59
2018-07-26T05:56:56.825Z,98138.94
2018-07-26T05:59:28.672Z,98135.06
2018-07-26T06:02:01.164Z,98130.45
2018-07-26T06:04:33.352Z,98123.19
2018-07-26T06:07:05.940Z,98126.83
2018-07-26T06:09:38.120Z,98122.52
2018-07-26T06:12:10.429Z,98122.52
2018-07-26T06:14:42.321Z,98120.80
2018-07-26T06:17:14.302Z,98119.35
2018-07-26T06:19:46.370Z,98117.20
2018-07-26T06:22:18.728Z,98113.86
2018-07-26T06:24:50.771Z,98109.56
2018-07-26T06:27:23.747Z,98106.38
2018-07-26T06:29:56.171Z,98111.39
2018-07-26T06:32:28.251Z,98112.89
2018-07-26T06:35:00.134Z,98109.94
2018-07-26T06:37:32.038Z,98104.97
2018-07-26T06:40:03.935Z,98105.63
2018-07-26T06:42:36.213Z,98097.16
2018-07-26T06:45:09.282Z,98099.30
2018-07-26T06:47:41.421Z,98100.92
2018-07-26T06:50:13.976Z,98095.31
2018-07-26T06:52:46.363Z,98097.31
2018-07-26T06:55:19.472Z,98094.00
2018-07-26T06:57:53.415Z,98091.34
2018-07-26T07:00:26.047Z,98092.67
2018-07-26T07:02:59.215Z,98091.34
2018-07-26T07:05:32.026Z,98080.37
2018-07-26T07:08:04.302Z,98088.73
2018-07-26T07:10:36.553Z,98081.37
2018-07-26T07:13:10.228Z,98089.06
2018-07-26T07:15:42.847Z,98079.55
2018-07-26T07:18:15.134Z,98078.92
2018-07-26T07:20:48.102Z,98072.13
2018-07-26T07:23:20.712Z,98072.95
2018-07-26T07:25:52.557Z,98067.30
2018-07-26T07:28:24.714Z,98064.83
2018-07-26T07:30:56.811Z,98064.14
2018-07-26T07:33:29.303Z,98062.48
2018-07-26T07:36:01.322Z,98060.83
2018-07-26T07:38:33.734Z,98066.20
2018-07-26T07:41:06.238Z,98062.16
2018-07-26T07:43:38.212Z,98055.19
2018-07-26T07:46:10.233Z,98054.89
2018-07-26T07:48:42.361Z,98054.89
2018-07-26T07:51:15.788Z,98048.03
2018-07-26T07:53:49.859Z,98038.28
2018-07-26T07:56:22.408Z,98037.78
2018-07-26T07:58:54.977Z,98031.12
2018-07-26T08:01:27.425Z,98023.80
2018-07-26T08:03:59.705Z,98026.14
2018-07-26T08:06:31.959Z,98022.50
2018-07-26T08:09:04.786Z,98013.34
2018-07-26T08:11:36.900Z,98015.02
2018-07-26T08:14:11.240Z,98012.69
2018-07-26T08:16:42.987Z,98013.52
2018-07-26T08:19:16.091Z,98012.36
2018-07-26T08:21:47.955Z,98008.55
2018-07-26T08:24:23.619Z,98006.37
2018-07-26T08:26:55.715Z,98007.10
2018-07-26T08:29:28.210Z,98005.22
2018-07-26T08:32:00.475Z,98001.28
2018-07-26T08:34:32.727Z,98006.78
2018-07-26T08:37:05.876Z,97995.46
2018-07-26T08:39:38.075Z,97995.81
2018-07-26T08:42:10.006Z,97994.81
2018-07-26T08:44:42.430Z,97996.14
2018-07-26T08:47:14.497Z,97996.81
2018-07-26T08:49:46.581Z,97995.46
2018-07-26T08:52:18.852Z,97994.64
2018-07-26T08:54:51.199Z,97991.65
2018-07-26T08:57:23.396Z,97980.59
2018-07-26T08:59:56.996Z,97981.42
2018-07-26T09:02:30.430Z,97983.25
2018-07-26T09:05:02.768Z,97976.72
2018-07-26T09:07:35.804Z,97974.27
2018-07-26T09:10:08.842Z,97973.95
2018-07-26T09:12:41.005Z,97963.58
2018-07-26T09:15:13.533Z,97970.73
2018-07-26T09:17:46.016Z,97969.40
2018-07-26T09:20:18.063Z,97956.28
2018-07-26T09:22:50.462Z,97960.66
2018-07-26T09:25:23.326Z,97955.57
2018-07-26T09:27:55.716Z,97956.58
2018-07-26T09:30:28.038Z,97948.09
2018-07-26T09:33:00.631Z,97953.03
2018-07-26T09:35:34.574Z,97944.20
2018-07-26T09:38:07.633Z,97944.20
2018-07-26T09:40:39.903Z,97947.03
2018-07-26T09:43:13.125Z,97939.71
2018-07-26T09:45:45.976Z,97937.05
2018-07-26T09:48:18.656Z,97947.48
2018-07-26T09:50:50.564Z,97947.69
2018-07-26T09:53:23.347Z,97941.87
2018-07-26T09:55:56.869Z,97936.66
2018-07-26T09:58:30.138Z,97936.22
2018-07-26T10:01:09.147Z,97933.73
2018-07-26T10:03:44.113Z,97932.73
2018-07-26T10:06:18.589Z,97933.06
2018-07-26T10:08:53.006Z,97929.91
2018-07-26T10:11:26.965Z,97923.55
2018-07-26T10:14:00.173Z,97926.41
2018-07-26T10:16:33.093Z,97926.41
2018-07-26T10:19:05.923Z,97931.41
2018-07-26T10:21:38.794Z,97929.75
2018-07-26T10:24:11.428Z,97931.08
2018-07-26T10:26:44.376Z,97933.56
2018-07-26T10:29:17.450Z,97926.92
2018-07-26T10:31:49.871Z,97932.41
2018-07-26T10:34:22.020Z,97939.71
2018-07-26T10:36:54.169Z,97923.76
2018-07-26T10:39:26.571Z,97928.07
2018-07-26T10:41:58.726Z,97921.42
2018-07-26T10:44:31.031Z,97918.44
2018-07-26T10:47:03.537Z,97915.13
2018-07-26T10:49:36.004Z,97904.67
2018-07-26T10:52:08.300Z,97903.34
2018-07-26T10:54:40.547Z,97892.38
2018-07-26T10:57:12.694Z,97890.05
2018-07-26T10:59:44.596Z,97890.55
2018-07-26T11:02:17.729Z,97883.91
2018-07-26T11:04:49.811Z,97886.23
2018-07-26T11:07:22.327Z,97885.23
2018-07-26T11:09:55.261Z,97886.56
2018-07-26T11:12:28.096Z,97884.08
2018-07-26T11:15:21.690Z,97887.06
2018-07-26T11:17:53.988Z,97884.23
2018-07-26T11:20:26.598Z,97879.30
2018-07-26T11:22:58.959Z,97881.42
2018-07-26T11:25:31.628Z,97880.01
2018-07-26T11:28:05.083Z,97879.33
2018-07-26T11:30:37.443Z,97881.48
2018-07-26T11:33:09.473Z,97887.95
2018-07-26T11:35:41.481Z,97886.62
2018-07-26T11:38:14.296Z,97877.17
2018-07-26T11:40:46.665Z,97880.01
2018-07-26T11:43:19.279Z,97881.16
2018-07-26T11:45:51.718Z,97885.98
2018-07-26T11:48:24.039Z,97891.12
2018-07-26T11:50:56.711Z,97882.48
2018-07-26T11:53:29.188Z,97891.30
2018-07-26T11:56:01.274Z,97892.80
2018-07-26T11:58:33.742Z,97889.02
2018-07-26T12:01:06.196Z,97889.97
2018-07-26T12:03:40.653Z,97892.68
2018-07-26T12:06:13.045Z,97892.68
2018-07-26T12:08:44.978Z,97896.78
2018-07-26T12:11:17.637Z,97898.12
2018-07-26T12:13:50.122Z,97899.13
2018-07-26T12:16:22.391Z,97899.33
2018-07-26T12:18:55.314Z,97897.29
2018-07-26T12:21:28.377Z,97899.66
2018-07-26T12:24:00.651Z,97900.66
2018-07-26T12:26:33.409Z,97898.33
2018-07-26T12:29:06.779Z,97903.11
2018-07-26T12:31:39.350Z,97898.62
2018-07-26T12:34:11.878Z,97894.62
2018-07-26T12:36:43.916Z,97891.67
2018-07-26T12:39:16.241Z,97889.02
2018-07-26T12:41:49.616Z,97882.05
2018-07-26T12:44:22.171Z,97887.37
2018-07-26T12:46:54.670Z,97890.37
2018-07-26T12:49:27.797Z,97895.02
2018-07-26T12:51:59.983Z,97890.91
2018-07-26T12:54:32.285Z,97890.84
2018-07-26T12:57:04.828Z,97882.73
2018-07-26T12:59:37.333Z,97879.39
2018-07-26T13:02:10.076Z,97881.93
2018-07-26T13:04:42.572Z,97886.92
2018-07-26T13:07:15.111Z,97889.42
2018-07-26T13:09:47.720Z,97894.06
2018-07-26T13:12:20.388Z,97894.39
2018-07-26T13:14:52.556Z,97908.00
2018-07-26T13:17:25.540Z,97913.00
2018-07-26T13:19:58.926Z,97920.97
2018-07-26T13:22:31.274Z,97922.92
2018-07-26T13:25:04.378Z,97931.60
2018-07-26T13:27:36.621Z,97929.95
2018-07-26T13:30:12.334Z,97933.26
2018-07-26T13:32:45.127Z,97933.26
2018-07-26T13:35:18.542Z,97936.92
2018-07-26T13:37:51.101Z,97938.92
2018-07-26T13:40:24.056Z,97940.60
2018-07-26T13:42:57.261Z,97946.57
2018-07-26T13:45:29.405Z,97941.58
2018-07-26T13:48:01.543Z,97938.92
2018-07-26T13:50:33.955Z,97937.27
2018-07-26T13:53:07.459Z,97934.78
2018-07-26T13:55:40.691Z,97933.95
2018-07-26T13:58:13.004Z,97940.30
2018-07-26T14:00:45.839Z,97940.30
2018-07-26T14:03:19.648Z,97940.81
2018-07-26T14:05:51.993Z,97933.69
2018-07-26T14:08:25.772Z,97939.83
2018-07-26T14:10:57.838Z,97941.66
2018-07-26T14:13:30.512Z,97936.02
2018-07-26T14:16:03.291Z,97942.84
2018-07-26T14:18:38.178Z,97948.48
2018-07-26T14:21:11.291Z,97949.13
2018-07-26T14:23:46.152Z,97956.95
2018-07-26T14:26:20.365Z,97959.94
2018-07-26T14:28:52.806Z,97956.28
2018-07-26T14:31:25.236Z,97964.23
2018-07-26T14:33:57.400Z,97965.02
2018-07-26T14:36:29.895Z,97965.73
2018-07-26T14:39:03.104Z,97963.92
2018-07-26T14:41:35.493Z,97958.28
2018-07-26T14:44:09.184Z,97970.89
2018-07-26T14:46:41.463Z,97968.23
2018-07-26T14:49:13.701Z,97972.05
2018-07-26T14:51:47.175Z,97969.56
2018-07-26T14:54:19.515Z,97965.25
2018-07-26T14:56:51.902Z,97967.08
2018-07-26T14:59:26.522Z,97961.64
2018-07-26T15:01:59.098Z,97961.94
2018-07-26T15:04:31.258Z,97964.92
2018-07-26T15:07:03.812Z,97962.42
2018-07-26T15:09:36.579Z,97960.98
2018-07-26T15:12:09.035Z,97964.59
2018-07-26T15:14:41.079Z,97957.16
2018-07-26T15:17:13.416Z,97949.69
2018-07-26T15:19:47.684Z,97946.70
2018-07-26T15:22:20.095Z,97950.86
2018-07-26T15:24:52.325Z,97948.36
2018-07-26T15:27:24.815Z,97949.69
2018-07-26T15:29:57.860Z,97957.33
2018-07-26T15:32:30.156Z,97959.48
2018-07-26T15:35:02.644Z,97963.14
2018-07-26T15:37:34.721Z,97966.63
2018-07-26T15:40:07.230Z,97959.33
2018-07-26T15:42:39.310Z,97962.73
2018-07-26T15:45:12.375Z,97960.34
2018-07-26T15:47:44.611Z,97965.80
2018-07-26T15:50:17.470Z,97960.16
2018-07-26T15:52:50.026Z,97964.47
2018-07-26T15:55:22.183Z,97963.80
2018-07-26T15:57:55.647Z,97970.12
2018-07-26T16:00:28.256Z,97976.76
2018-07-26T16:03:01.674Z,97979.09
2018-07-26T16:12:35.345Z,97984.58
2018-07-26T16:15:09.151Z,97990.22
2018-07-26T16:17:41.618Z,97986.23
2018-07-26T16:20:15.869Z,97994.53
2018-07-26T16:22:48.360Z,97995.16
2018-07-26T16:25:26.063Z,97992.88
2018-07-26T16:27:58.219Z,97988.22
2018-07-26T16:30:31.375Z,97997.31
2018-07-26T16:33:03.577Z,97992.00
2018-07-26T16:35:37.035Z,97998.47
2018-07-26T16:38:10.111Z,97995.48
2018-07-26T16:40:43.276Z,97985.56
2018-07-26T16:43:15.946Z,97988.22
2018-07-26T16:45:48.905Z,97980.54
2018-07-26T16:48:21.820Z,97983.52
2018-07-26T16:50:55.305Z,97984.52
2018-07-26T16:53:27.997Z,97994.36
2018-07-26T16:55:59.981Z,97998.02
2018-07-26T16:58:33.683Z,98005.16
2018-07-26T17:01:06.784Z,98010.30
2018-07-26T17:03:40.181Z,98011.63
2018-07-26T17:06:14.070Z,98009.47
2018-07-26T17:08:47.460Z,98002.50
2018-07-26T17:11:19.786Z,98009.14
2018-07-26T17:13:51.895Z,98002.83
2018-07-26T17:16:24.172Z,98006.11
2018-07-26T17:18:56.603Z,98007.11
2018-07-26T17:21:28.750Z,97992.88
2018-07-26T17:24:03.368Z,97994.20
2018-07-26T17:26:35.967Z,97999.34
2018-07-26T17:29:08.328Z,97996.19
2018-07-26T17:31:41.135Z,97992.88
2018-07-26T17:34:13.458Z,97991.17
2018-07-26T17:36:46.266Z,97981.37
2018-07-26T17:39:18.400Z,97982.90
2018-07-26T17:41:50.364Z,97977.59
2018-07-26T17:46:48.635Z,97974.60
2018-07-26T17:49:22.078Z,97982.90
2018-07-26T17:51:55.064Z,97982.42
2018-07-26T17:54:27.691Z,97981.92
2018-07-26T17:57:00.019Z,97983.92
2018-07-26T17:59:32.765Z,97981.09
2018-07-26T18:02:05.484Z,97983.59
2018-07-26T18:04:39.729Z,97975.63
2018-07-26T18:07:12.989Z,97987.73
2018-07-26T18:09:45.887Z,97976.78
2018-07-26T18:12:18.154Z,97986.08
2018-07-26T18:14:51.320Z,97981.59
2018-07-26T18:17:23.915Z,97986.45
2018-07-26T18:19:56.956Z,97991.39
2018-07-26T18:22:29.598Z,97989.23
2018-07-26T18:25:03.167Z,97993.42
2018-07-26T18:27:36.890Z,97990.06
2018-07-26T18:30:09.826Z,97983.30
2018-07-26T18:32:42.919Z,97974.83
2018-07-26T18:35:16.733Z,97971.64
2018-07-26T18:37:49.407Z,97977.48
2018-07-26T18:40:22.194Z,97974.34
2018-07-26T18:42:55.277Z,97971.73
2018-07-26T18:45:27.533Z,97970.70
2018-07-26T18:48:00.565Z,97972.69
2018-07-26T18:50:33.156Z,97963.72
2018-07-26T18:53:05.339Z,97966.37
2018-07-26T18:55:37.856Z,97963.22
2018-07-26T18:58:10.288Z,97962.39
2018-07-26T19:00:43.696Z,97961.73
2018-07-26T19:03:16.034Z,97954.77
2018-07-26T19:05:48.178Z,97956.24
2018-07-26T19:08:20.078Z,97955.09
2018-07-26T19:10:52.581Z,97957.75
2018-07-26T19:13:25.637Z,97951.48
2018-07-26T19:15:57.933Z,97945.84
2018-07-26T19:18:30.497Z,97942.86
2018-07-26T19:21:02.659Z,97936.22
2018-07-26T19:23:34.568Z,97937.22
2018-07-26T19:26:07.083Z,97933.56
2018-07-26T19:28:39.650Z,97929.58
2018-07-26T19:31:11.960Z,97934.56
2018-07-26T19:33:44.272Z,97937.89
2018-07-26T19:36:16.611Z,97934.94
2018-07-26T19:38:48.834Z,97937.27
2018-07-26T19:41:21.432Z,97933.89
2018-07-26T19:43:53.664Z,97927.09
2018-07-26T19:46:25.985Z,97922.27
2018-07-26T19:48:58.017Z,97918.63
2018-07-26T19:51:30.115Z,97923.81
2018-07-26T19:54:02.440Z,97912.36
2018-07-26T19:56:35.838Z,97913.69
2018-07-26T19:59:08.012Z,97912.20
2018-07-26T20:01:40.574Z,97909.38
2018-07-26T20:04:13.008Z,97903.41
2018-07-26T20:06:45.207Z,97901.09
2018-07-26T20:09:17.412Z,97904.08
2018-07-26T20:11:49.888Z,97894.61
2018-07-26T20:14:21.909Z,97887.14
2018-07-26T20:16:54.211Z,97889.47
2018-07-26T20:19:26.420Z,97885.16
2018-07-26T20:21:58.693Z,97884.16
2018-07-26T20:24:30.863Z,97873.27
2018-07-26T20:27:03.098Z,97869.61
2018-07-26T20:29:35.359Z,97866.56
2018-07-26T20:32:07.137Z,97867.61
2018-07-26T20:34:39.103Z,97875.27
2018-07-26T20:37:11.501Z,97867.30
2018-07-26T20:39:43.767Z,97865.64
2018-07-26T20:42:16.409Z,97856.05
2018-07-26T20:44:48.373Z,97855.08
2018-07-26T20:47:20.429Z,97851.92
2018-07-26T20:49:52.398Z,97850.91
2018-07-26T20:52:24.590Z,97841.11
2018-07-26T20:54:57.431Z,97841.61
2018-07-26T20:57:29.448Z,97846.80
2018-07-26T21:00:01.958Z,97840.47
2018-07-26T21:02:34.148Z,97843.30
2018-07-26T21:05:06.071Z,97836.98
2018-07-26T21:07:37.882Z,97839.78
2018-07-26T21:10:10.651Z,97832.81
2018-07-26T21:12:42.650Z,97832.31
2018-07-26T21:15:14.698Z,97828.69
2018-07-26T21:17:46.501Z,97832.05
2018-07-26T21:20:18.671Z,97820.92
2018-07-26T21:22:51.036Z,97821.27
2018-07-26T21:25:22.865Z,97816.99
2018-07-26T21:27:55.027Z,97815.95
2018-07-26T21:30:26.919Z,97820.65
2018-07-26T21:32:58.586Z,97817.28
2018-07-26T21:35:30.422Z,97817.61
2018-07-26T21:38:02.507Z,97820.97
2018-07-26T21:40:34.455Z,97814.01
2018-07-26T21:43:06.461Z,97817.99
2018-07-26T21:45:38.285Z,97817.78
2018-07-26T21:48:09.941Z,97813.86
2018-07-26T21:50:41.784Z,97813.68
2018-07-26T21:53:13.648Z,97809.70
2018-07-26T21:55:45.471Z,97817.28
2018-07-26T21:58:17.281Z,97807.16
2018-07-26T22:00:53.477Z,97810.38
2018-07-26T22:03:25.588Z,97813.68
2018-07-26T22:05:57.589Z,97817.34
2018-07-26T22:08:29.346Z,97813.03
2018-07-26T22:11:01.060Z,97812.03
2018-07-26T22:13:33.072Z,97815.36
2018-07-26T22:16:04.998Z,97812.03
2018-07-26T22:18:36.804Z,97811.05
2018-07-26T22:21:09.773Z,97810.42
2018-07-26T22:23:41.419Z,97819.02
2018-07-26T22:26:13.326Z,97808.09
2018-07-26T22:28:45.030Z,97810.38
2018-07-26T22:31:16.604Z,97802.46
2018-07-26T22:33:48.311Z,97799.81
2018-07-26T22:36:20.266Z,97807.39
2018-07-26T22:38:52.853Z,97802.91
2018-07-26T22:41:24.626Z,97797.48
2018-07-26T22:43:56.308Z,97802.79
2018-07-26T22:46:28.207Z,97793.84
2018-07-26T22:48:59.846Z,97797.48
2018-07-26T22:51:31.865Z,97791.19
2018-07-26T22:54:04.896Z,97789.52
2018-07-26T22:56:36.834Z,97792.94
2018-07-26T22:59:08.603Z,97790.84
2018-07-26T23:01:40.396Z,97800.14
2018-07-26T23:04:12.268Z,97799.33
2018-07-26T23:06:44.094Z,97803.48
2018-07-26T23:09:15.735Z,97798.50
2018-07-26T23:11:47.519Z,97810.45
2018-07-26T23:14:19.245Z,97809.77
2018-07-26T23:16:51.137Z,97808.12
2018-07-26T23:19:22.843Z,97809.77
2018-07-26T23:21:55.001Z,97808.12
2018-07-26T23:24:26.761Z,97809.80
2018-07-26T23:26:58.394Z,97806.47
2018-07-26T23:29:30.442Z,97802.16
2018-07-26T23:32:02.196Z,97800.00
2018-07-26T23:34:33.975Z,97802.86
2018-07-26T23:37:05.897Z,97802.98
2018-07-26T23:39:37.573Z,97802.86
2018-07-26T23:42:09.462Z,97797.22
2018-07-26T23:44:41.237Z,97789.59
2018-07-26T23:47:12.984Z,97803.53
2018-07-26T23:49:44.724Z,97798.22
2018-07-26T23:52:16.456Z,97801.88
2018-07-26T23:54:48.102Z,97796.07
2018-07-26T23:57:19.772Z,97794.09
2018-07-26T23:59:51.360Z,97798.90
